Flight Track Log - Related Links

Times and Time Zones

All times are in EDT time to prevent confusion due to time zone crossing. See the N99PN flight status page for this flight to view local times or setup timezone preferences in your user account.

Time Position Orientation Groundspeed Altitude Reporting Facility
EDT Latitude Longitude Course Direction KTS km/h meters Rate Location/Type
Mon 16:07:19 27.3833 -82.5500 90° East 114 211 91  Level Tampa TRACON
Mon 16:08:07 27.3833 -82.5167 90° East 128 237 305 237 Climbing Tampa TRACON
Mon 16:09:07 27.3833 -82.4833 90° East 128 237 518 274 Climbing Tampa TRACON
Mon 16:10:07 27.4167 -82.4500 42° Northeast 121 224 853 290 Climbing Tampa TRACON
Mon 16:11:07 27.4333 -82.4333 42° Northeast 133 246 1,097 244 Climbing Tampa TRACON
Mon 16:12:07 27.4833 -82.4167 16° North 139 257 1,341 213 Climbing Tampa TRACON
Mon 16:13:07 27.5167 -82.3833 42° Northeast 152 282 1,524 95 Climbing Tampa TRACON
Mon 16:14:02 27.5500 -82.3667 24° Northeast 160 296 1,524 -16 Level Tampa TRACON
Mon 16:15:01 27.5833 -82.3500 24° Northeast 168 311 1,494 10 Descending Tampa TRACON
Mon 16:17:02 27.6667 -82.3000 28° Northeast 168 311 1,554 Climbing Tampa TRACON
Mon 16:19:02 27.7500 -82.2500 28° Northeast 164 304 1,524 -8 Descending Tampa TRACON
Mon 16:21:02 27.8167 -82.1833 41° Northeast 163 303 1,524  Level Tampa TRACON
Mon 16:22:02 27.8500 -82.1500 41° Northeast 165 306 1,524 20 Level Tampa TRACON
Mon 16:22:36 27.8711 -82.1200 51° Northeast 166 307 1,554  Climbing Miami Center
Mon 16:24:40 27.9356 -82.0486 44° Northeast 158 293 1,524 -8 Descending Miami Center
Mon 16:26:23 28.0000 -81.9833 42° Northeast 161 298 1,524 10 Level Orlando TRACON
Mon 16:27:46 28.0317 -81.9422 49° Northeast 161 298 1,554 12 Climbing Miami Center
Mon 16:28:48 28.0647 -81.9064 44° Northeast 161 298 1,554  Level Miami Center
Mon 16:29:50 28.1044 -81.8633 44° Northeast 162 299 1,554 -12 Level Miami Center
Mon 16:31:24 28.1500 -81.8000 51° Northeast 164 304 1,524 -12 Descending Orlando TRACON
Mon 16:32:25 28.1833 -81.7667 41° Northeast 161 298 1,524 -76 Level Orlando TRACON
Mon 16:33:25 28.2167 -81.7333 41° Northeast 156 290 1,372 -152 Descending Orlando TRACON
Mon 16:34:25 28.2500 -81.7000 41° Northeast 152 282 1,219 -152 Descending Orlando TRACON
Mon 16:35:25 28.2667 -81.6667 60° Northeast 153 283 1,067 -115 Descending Orlando TRACON
Mon 16:37:04 28.3203 -81.6031 46° Northeast 154 285 914 -125 Descending Miami Center
Mon 16:38:06 28.3494 -81.5661 48° Northeast 155 286 732 -177 Descending Miami Center
Mon 16:39:08 28.3819 -81.5253 48° Northeast 155 286 549 -118 Descending Miami Center
Mon 16:40:10 28.4106 -81.4894 48° Northeast 155 286 488 -30 Descending Miami Center
Mon 16:41:12 28.4408 -81.4586 42° Northeast 149 275 488 15 Level Miami Center
Mon 16:42:14 28.4783 -81.4331 31° Northeast 153 283 518 -15 Climbing Miami Center
Mon 16:43:16 28.5083 -81.4158 27° Northeast 134 248 457 -97 Descending Miami Center
Mon 16:44:26 28.5333 -81.3833 49° Northeast 95 175 305 -126 Descending Orlando TRACON
Mon 16:45:26 28.5333 -81.3500 90° East 103 192 183 -122 Descending Orlando TRACON
Mon 16:47:00 28.5455 -81.3329 66° East  Level Estimated
Mon 16:54:00 28.5455 -81.3329 66° East  Level Estimated
Mon 16:55:00 28.5455 -81.3329 130° Southeast  Level Estimated
Mon 16:56:00 28.5455 -81.3329 130° Southeast  Level Estimated

Login

Don't have an account? Register now (free) for customized features, flight alerts, and more!